Time;durP1;ratioP1;P1;durP2;ratioP2;P2;SDS_P1;SDS_P2;PMS_P1;PMS_P2;Temp;Humidity;BMP_temperature;BMP_pressure;BME280_temperature;BME280_humidity;BME280_pressure;Samples;Min_cycle;Max_cycle;Signal;HPM_P1;HPM_P2
2022/10/12 00:01:44;;;;;;;;;;;6.20;99.90;;;;;;5080335;28;19924;-63
2022/10/12 00:04:10;;;;;;;;;;;6.30;99.90;;;;;;5080669;28;19912;-63
2022/10/12 00:06:35;;;;;;;;;;;6.30;99.90;;;;;;5078479;28;20320;-62
2022/10/12 00:09:01;;;;;;;;;;;6.30;99.90;;;;;;5082334;28;19916;-63
2022/10/12 00:11:27;;;;;;;;;;;6.40;99.90;;;;;;5078914;28;20054;-63
2022/10/12 00:13:53;;;;;;;;;;;6.40;99.90;;;;;;5072994;28;19916;-63
2022/10/12 00:16:20;;;;;;;;;;;6.50;99.90;;;;;;5073327;28;19912;-63
2022/10/12 00:18:50;;;;;;;;;;;6.50;99.90;;;;;;5080478;28;20597;-63
2022/10/12 00:21:15;;;;;;;;;;;6.60;99.90;;;;;;5074842;28;19920;-63
2022/10/12 00:23:42;;;;;;;;;;;6.60;99.90;;;;;;5076612;28;19919;-63
2022/10/12 00:26:10;;;;;;;;;;;6.50;99.90;;;;;;5074265;28;19927;-63
2022/10/12 00:28:36;;;;;;;;;;;6.60;99.90;;;;;;5078600;28;19920;-63
2022/10/12 00:31:06;;;;;;;;;;;6.60;99.90;;;;;;5075201;28;20286;-63
2022/10/12 00:33:31;;;;;;;;;;;6.80;99.90;;;;;;5074671;28;19920;-63
2022/10/12 00:35:57;;;;;;;;;;;6.70;99.90;;;;;;5076219;28;20396;-63
2022/10/12 00:38:22;;;;;;;;;;;6.80;99.90;;;;;;5075760;28;19912;-63
2022/10/12 00:40:48;;;;;;;;;;;6.80;99.90;;;;;;5070877;28;19916;-63
2022/10/12 00:43:42;;;;;;;;;;;6.90;99.90;;;;;;5076488;28;20014;-63
2022/10/12 00:46:14;;;;;;;;;;;6.80;99.90;;;;;;5070921;28;19923;-63
2022/10/12 00:48:40;;;;;;;;;;;6.80;99.90;;;;;;5078983;28;20401;-63
2022/10/12 00:51:06;;;;;;;;;;;6.80;99.90;;;;;;5081149;28;19935;-63
2022/10/12 00:53:35;;;;;;;;;;;6.90;99.90;;;;;;5079848;28;19927;-63
2022/10/12 00:56:02;;;;;;;;;;;6.90;99.90;;;;;;5077938;28;20296;-63
2022/10/12 00:58:30;;;;;;;;;;;6.90;99.90;;;;;;5078793;28;19912;-63
2022/10/12 01:00:57;;;;;;;;;;;6.90;99.90;;;;;;5078943;28;19954;-62
2022/10/12 01:03:23;;;;;;;;;;;6.80;99.90;;;;;;5084225;28;19928;-63
2022/10/12 01:05:49;;;;;;;;;;;6.80;99.90;;;;;;5079722;28;19920;-63
2022/10/12 01:08:14;;;;;;;;;;;6.80;99.90;;;;;;5081096;28;19935;-63
2022/10/12 01:10:40;;;;;;;;;;;7.00;99.90;;;;;;5082744;28;19924;-64
2022/10/12 01:13:05;;;;;;;;;;;7.00;99.90;;;;;;5067336;28;19916;-63
2022/10/12 01:15:33;;;;;;;;;;;6.70;99.90;;;;;;5083763;28;20357;-62
2022/10/12 01:18:03;;;;;;;;;;;6.70;99.90;;;;;;5082974;28;19924;-62
2022/10/12 01:20:41;;;;;;;;;;;6.80;99.90;;;;;;5081302;28;19920;-63
2022/10/12 01:23:12;;;;;;;;;;;6.80;99.90;;;;;;5085598;28;19912;-64
2022/10/12 01:25:43;;;;;;;;;;;6.70;99.90;;;;;;5080735;28;19926;-65
2022/10/12 01:28:23;;;;;;;;;;;6.70;99.90;;;;;;5075003;28;19920;-64
2022/10/12 01:30:53;;;;;;;;;;;6.70;99.90;;;;;;5078593;28;20282;-64
2022/10/12 01:33:35;;;;;;;;;;;6.70;99.90;;;;;;5080689;28;19912;-65
2022/10/12 01:36:07;;;;;;;;;;;6.80;99.90;;;;;;5079620;28;19990;-64
2022/10/12 01:38:42;;;;;;;;;;;7.00;99.90;;;;;;5075602;28;20024;-64
2022/10/12 01:41:13;;;;;;;;;;;7.20;99.90;;;;;;5079585;28;19927;-64
2022/10/12 01:43:40;;;;;;;;;;;7.40;99.90;;;;;;5087793;28;19917;-64
2022/10/12 01:46:25;;;;;;;;;;;7.50;99.90;;;;;;5078747;28;19977;-64
2022/10/12 01:48:53;;;;;;;;;;;7.60;99.90;;;;;;5081954;28;19932;-65
2022/10/12 01:51:37;;;;;;;;;;;7.60;99.90;;;;;;5082183;28;19920;-65
2022/10/12 01:54:03;;;;;;;;;;;7.70;99.90;;;;;;5083878;28;20428;-64
2022/10/12 01:56:39;;;;;;;;;;;7.70;99.90;;;;;;5085272;28;20007;-65
2022/10/12 01:59:10;;;;;;;;;;;7.80;99.90;;;;;;5077204;28;19920;-64
2022/10/12 02:01:54;;;;;;;;;;;7.80;99.90;;;;;;5078174;28;20305;-65
2022/10/12 02:04:43;;;;;;;;;;;7.70;99.90;;;;;;5079249;28;19920;-64
2022/10/12 02:07:35;;;;;;;;;;;7.80;99.90;;;;;;5077640;28;19919;-64
2022/10/12 02:10:01;;;;;;;;;;;7.80;99.90;;;;;;5088097;28;19970;-65
2022/10/12 02:12:28;;;;;;;;;;;7.70;99.90;;;;;;5080168;28;19924;-64
2022/10/12 02:14:55;;;;;;;;;;;7.70;99.90;;;;;;5080445;28;19928;-64
2022/10/12 02:17:21;;;;;;;;;;;7.60;99.90;;;;;;5087690;28;20349;-65
2022/10/12 02:19:50;;;;;;;;;;;7.50;99.90;;;;;;5086734;28;19950;-64
2022/10/12 02:22:16;;;;;;;;;;;7.70;99.90;;;;;;5074437;28;19923;-64
2022/10/12 02:24:42;;;;;;;;;;;7.80;99.90;;;;;;5078796;28;19919;-64
2022/10/12 02:27:10;;;;;;;;;;;7.80;99.90;;;;;;5083668;28;20003;-64
2022/10/12 02:29:37;;;;;;;;;;;7.80;99.90;;;;;;5079556;28;20633;-64
2022/10/12 02:32:27;;;;;;;;;;;7.70;99.90;;;;;;5082624;28;19992;-64
2022/10/12 02:35:16;;;;;;;;;;;7.60;99.90;;;;;;5077025;28;19920;-64
2022/10/12 02:37:41;;;;;;;;;;;7.60;99.90;;;;;;5053863;28;19916;-64
2022/10/12 02:40:29;;;;;;;;;;;7.60;99.90;;;;;;5079264;28;19920;-65
2022/10/12 02:42:56;;;;;;;;;;;7.60;99.90;;;;;;5076974;28;19916;-65
2022/10/12 02:45:23;;;;;;;;;;;7.70;99.90;;;;;;5076774;28;19965;-64
2022/10/12 02:47:50;;;;;;;;;;;7.60;99.90;;;;;;5081436;28;19912;-65
2022/10/12 02:50:16;;;;;;;;;;;7.60;99.90;;;;;;5082890;28;20424;-65
2022/10/12 02:52:42;;;;;;;;;;;7.60;99.90;;;;;;5076204;28;19920;-64
2022/10/12 02:55:07;;;;;;;;;;;7.70;99.90;;;;;;5081707;28;19947;-65
2022/10/12 02:57:33;;;;;;;;;;;7.80;99.90;;;;;;5078465;28;19955;-65
2022/10/12 02:59:58;;;;;;;;;;;7.90;99.90;;;;;;5079188;28;20273;-64
2022/10/12 03:02:24;;;;;;;;;;;7.90;99.90;;;;;;5072805;28;19920;-65
2022/10/12 03:04:49;;;;;;;;;;;7.80;99.90;;;;;;5082692;28;21567;-64
2022/10/12 03:07:15;;;;;;;;;;;7.70;99.90;;;;;;5075314;28;19966;-65
2022/10/12 03:09:40;;;;;;;;;;;7.80;99.90;;;;;;5073899;28;19985;-64
2022/10/12 03:12:06;;;;;;;;;;;7.80;99.90;;;;;;5077496;28;19931;-64
2022/10/12 03:14:34;;;;;;;;;;;7.80;99.90;;;;;;5072373;28;20550;-64
2022/10/12 03:16:59;;;;;;;;;;;7.70;99.90;;;;;;5080081;28;19912;-64
2022/10/12 03:19:25;;;;;;;;;;;7.70;99.90;;;;;;5076167;28;20392;-66
2022/10/12 03:21:50;;;;;;;;;;;7.70;99.90;;;;;;5077301;28;19921;-64
2022/10/12 03:24:16;;;;;;;;;;;7.80;99.90;;;;;;5078266;28;20002;-64
2022/10/12 03:26:41;;;;;;;;;;;7.90;99.90;;;;;;5078849;28;19916;-64
2022/10/12 03:29:08;;;;;;;;;;;7.90;99.90;;;;;;5076326;28;19920;-64
2022/10/12 03:31:34;;;;;;;;;;;7.80;99.90;;;;;;5075203;28;20897;-64
2022/10/12 03:33:59;;;;;;;;;;;7.80;99.90;;;;;;5076162;28;19919;-64
2022/10/12 03:36:25;;;;;;;;;;;7.80;99.90;;;;;;5081608;28;19919;-64
2022/10/12 03:38:50;;;;;;;;;;;7.80;99.90;;;;;;5076803;28;20022;-64
2022/10/12 03:41:16;;;;;;;;;;;7.90;99.90;;;;;;5072676;28;19912;-64
2022/10/12 03:43:41;;;;;;;;;;;8.00;99.90;;;;;;5074995;28;19912;-65
2022/10/12 03:46:07;;;;;;;;;;;8.20;99.90;;;;;;5076705;28;19920;-65
2022/10/12 03:48:33;;;;;;;;;;;8.20;99.90;;;;;;5074315;28;20273;-64
2022/10/12 03:50:58;;;;;;;;;;;8.30;99.90;;;;;;5080934;28;19928;-64
2022/10/12 03:53:23;;;;;;;;;;;8.30;99.90;;;;;;5069829;28;19912;-65
2022/10/12 03:55:49;;;;;;;;;;;8.30;99.90;;;;;;5072400;28;19916;-64
2022/10/12 03:58:15;;;;;;;;;;;8.40;99.90;;;;;;5076218;28;20401;-64
2022/10/12 04:00:40;;;;;;;;;;;8.40;99.90;;;;;;5072716;28;19912;-64
2022/10/12 04:03:06;;;;;;;;;;;8.50;99.90;;;;;;5074853;28;19927;-65
2022/10/12 04:05:31;;;;;;;;;;;8.60;99.90;;;;;;5077777;28;20385;-65
2022/10/12 04:07:57;;;;;;;;;;;8.50;99.90;;;;;;5075193;28;20365;-65
2022/10/12 04:10:23;;;;;;;;;;;8.60;99.90;;;;;;5070021;28;19924;-65
2022/10/12 04:12:49;;;;;;;;;;;8.50;99.90;;;;;;5076506;28;19912;-64
2022/10/12 04:15:16;;;;;;;;;;;8.60;99.90;;;;;;5073495;28;19942;-65
2022/10/12 04:17:42;;;;;;;;;;;8.50;99.90;;;;;;5075652;28;19929;-65
2022/10/12 04:20:08;;;;;;;;;;;8.50;99.90;;;;;;5080910;28;20233;-64
2022/10/12 04:22:34;;;;;;;;;;;8.40;99.90;;;;;;5079493;28;19927;-64
2022/10/12 04:24:59;;;;;;;;;;;8.30;99.90;;;;;;5078194;28;19924;-65
2022/10/12 04:27:25;;;;;;;;;;;8.40;99.90;;;;;;5078161;28;19912;-64
2022/10/12 04:29:50;;;;;;;;;;;8.40;99.90;;;;;;5081371;28;19920;-64
2022/10/12 04:32:16;;;;;;;;;;;8.40;99.90;;;;;;5074118;28;20449;-64
2022/10/12 04:34:41;;;;;;;;;;;8.40;99.90;;;;;;5075075;28;20019;-65
2022/10/12 04:37:07;;;;;;;;;;;8.30;99.90;;;;;;5073715;28;21493;-65
2022/10/12 04:39:33;;;;;;;;;;;8.40;99.90;;;;;;5071741;28;19913;-65
2022/10/12 04:41:58;;;;;;;;;;;8.40;99.90;;;;;;5077033;28;19923;-65
2022/10/12 04:44:24;;;;;;;;;;;8.50;99.90;;;;;;5080215;28;20015;-65
2022/10/12 04:46:49;;;;;;;;;;;8.40;99.90;;;;;;5074506;28;19916;-65
2022/10/12 04:49:15;;;;;;;;;;;8.50;99.90;;;;;;5073492;28;19920;-64
2022/10/12 04:51:41;;;;;;;;;;;8.40;99.90;;;;;;5079501;28;19942;-64
2022/10/12 04:54:06;;;;;;;;;;;8.30;99.90;;;;;;5072452;28;19921;-64
2022/10/12 04:56:32;;;;;;;;;;;8.40;99.90;;;;;;5068127;28;19913;-64
2022/10/12 04:58:57;;;;;;;;;;;8.50;99.90;;;;;;5075517;28;19913;-64
2022/10/12 05:01:23;;;;;;;;;;;8.60;99.90;;;;;;5073661;28;21558;-67
2022/10/12 05:03:48;;;;;;;;;;;8.60;99.90;;;;;;5080221;28;20429;-64
2022/10/12 05:06:14;;;;;;;;;;;8.50;99.90;;;;;;5073131;28;19999;-65
2022/10/12 05:08:39;;;;;;;;;;;8.70;99.90;;;;;;5073212;28;20003;-65
2022/10/12 05:11:05;;;;;;;;;;;8.80;99.90;;;;;;5071454;28;19963;-64
2022/10/12 05:13:30;;;;;;;;;;;8.80;99.90;;;;;;5073510;28;19943;-64
2022/10/12 05:15:56;;;;;;;;;;;8.70;99.90;;;;;;5077205;28;20269;-64
2022/10/12 05:18:21;;;;;;;;;;;8.70;99.90;;;;;;5080576;28;20928;-64
2022/10/12 05:20:47;;;;;;;;;;;8.80;99.90;;;;;;5083573;28;19947;-64
2022/10/12 05:23:13;;;;;;;;;;;8.80;99.90;;;;;;5073881;28;20422;-65
2022/10/12 05:25:38;;;;;;;;;;;8.80;99.90;;;;;;5081738;28;19965;-65
2022/10/12 05:28:04;;;;;;;;;;;8.80;99.90;;;;;;5086431;28;20376;-65
2022/10/12 05:30:29;;;;;;;;;;;8.90;99.90;;;;;;5084093;28;19920;-64
2022/10/12 05:32:55;;;;;;;;;;;8.90;99.90;;;;;;5079150;28;20011;-65
2022/10/12 05:35:21;;;;;;;;;;;8.90;99.90;;;;;;5080885;28;20003;-64
2022/10/12 05:37:46;;;;;;;;;;;9.00;99.90;;;;;;5077641;28;19912;-66
2022/10/12 05:40:12;;;;;;;;;;;9.00;99.90;;;;;;5081606;28;20006;-66
2022/10/12 05:42:37;;;;;;;;;;;9.00;99.90;;;;;;5076768;28;19918;-64
2022/10/12 05:45:03;;;;;;;;;;;9.10;99.90;;;;;;5083853;28;20285;-66
2022/10/12 05:47:29;;;;;;;;;;;9.00;99.90;;;;;;5081681;28;20034;-65
2022/10/12 05:49:55;;;;;;;;;;;9.00;99.90;;;;;;5076766;28;19912;-64
2022/10/12 05:52:20;;;;;;;;;;;9.00;99.90;;;;;;5076999;28;20053;-64
2022/10/12 05:54:46;;;;;;;;;;;9.10;99.90;;;;;;5082048;28;19954;-65
2022/10/12 05:57:13;;;;;;;;;;;9.00;99.90;;;;;;5082232;28;20043;-65
2022/10/12 05:59:39;;;;;;;;;;;8.90;99.90;;;;;;5073890;28;19913;-65
2022/10/12 06:02:04;;;;;;;;;;;8.90;99.90;;;;;;5067683;28;19936;-66
2022/10/12 06:04:30;;;;;;;;;;;8.80;99.90;;;;;;5079135;28;20354;-65
2022/10/12 06:06:56;;;;;;;;;;;8.80;99.90;;;;;;5078105;28;20307;-65
2022/10/12 06:09:21;;;;;;;;;;;8.70;99.90;;;;;;5081898;28;20019;-65
2022/10/12 06:11:47;;;;;;;;;;;8.60;99.90;;;;;;5077340;28;20270;-65
2022/10/12 06:14:13;;;;;;;;;;;8.60;99.90;;;;;;5078690;28;19927;-64
2022/10/12 06:16:39;;;;;;;;;;;8.60;99.90;;;;;;5084701;28;19912;-64
2022/10/12 06:19:04;;;;;;;;;;;8.70;99.90;;;;;;5089201;28;19980;-64
2022/10/12 06:21:30;;;;;;;;;;;8.80;99.90;;;;;;5086631;28;19916;-64
2022/10/12 06:23:55;;;;;;;;;;;8.90;99.90;;;;;;5085877;28;19955;-64
2022/10/12 06:26:21;;;;;;;;;;;9.00;99.90;;;;;;5094543;28;19912;-64
2022/10/12 06:28:46;;;;;;;;;;;9.00;99.90;;;;;;5090597;28;19923;-64
2022/10/12 06:31:13;;;;;;;;;;;8.90;99.90;;;;;;5090309;28;19924;-64
2022/10/12 06:33:38;;;;;;;;;;;9.00;99.90;;;;;;5093340;28;19916;-64
2022/10/12 06:36:04;;;;;;;;;;;9.10;99.90;;;;;;5101065;28;19980;-64
2022/10/12 06:38:29;;;;;;;;;;;9.10;99.90;;;;;;5099870;28;19919;-64
2022/10/12 06:40:55;;;;;;;;;;;9.10;99.90;;;;;;5087243;28;19925;-66
2022/10/12 06:43:21;;;;;;;;;;;9.10;99.90;;;;;;5092519;28;20031;-65
2022/10/12 06:45:47;;;;;;;;;;;9.10;99.90;;;;;;5091165;28;19923;-65
2022/10/12 06:48:13;;;;;;;;;;;9.10;99.90;;;;;;5095238;28;20794;-65
2022/10/12 06:50:40;;;;;;;;;;;9.10;99.90;;;;;;5092644;28;19924;-64
2022/10/12 06:53:05;;;;;;;;;;;9.20;99.90;;;;;;5091525;28;20003;-64
2022/10/12 06:55:31;;;;;;;;;;;9.20;99.90;;;;;;5094241;28;19979;-65
2022/10/12 06:57:57;;;;;;;;;;;9.10;99.90;;;;;;5088437;28;19912;-65
2022/10/12 07:00:23;;;;;;;;;;;9.00;99.90;;;;;;5080864;28;19924;-64
2022/10/12 07:02:49;;;;;;;;;;;9.10;99.90;;;;;;5091286;28;19924;-64
2022/10/12 07:05:15;;;;;;;;;;;9.10;99.90;;;;;;5086540;28;19912;-64
2022/10/12 07:07:40;;;;;;;;;;;9.00;99.90;;;;;;5089176;28;19912;-65
2022/10/12 07:10:07;;;;;;;;;;;9.00;99.90;;;;;;5092806;28;19931;-66
2022/10/12 07:12:34;;;;;;;;;;;9.00;99.90;;;;;;5095504;28;19913;-65
2022/10/12 07:15:00;;;;;;;;;;;9.00;99.90;;;;;;5088932;28;19919;-65
2022/10/12 07:17:25;;;;;;;;;;;8.90;99.90;;;;;;5084150;28;19916;-65
2022/10/12 07:19:52;;;;;;;;;;;8.90;99.90;;;;;;5086595;28;19919;-66
2022/10/12 07:22:18;;;;;;;;;;;8.90;99.90;;;;;;5089831;28;19951;-66
2022/10/12 07:24:43;;;;;;;;;;;8.90;99.90;;;;;;5089491;28;19923;-66
2022/10/12 07:27:10;;;;;;;;;;;8.90;99.90;;;;;;5086276;28;20373;-66
2022/10/12 07:29:36;;;;;;;;;;;8.90;99.90;;;;;;5075666;28;19969;-68
2022/10/12 07:32:02;;;;;;;;;;;8.90;99.90;;;;;;5073401;28;19936;-65
2022/10/12 07:34:28;;;;;;;;;;;9.00;99.90;;;;;;5091763;28;19912;-64
2022/10/12 07:36:53;;;;;;;;;;;9.10;99.90;;;;;;5079965;28;20431;-65
2022/10/12 07:39:19;;;;;;;;;;;9.30;99.90;;;;;;5087233;28;19913;-65
2022/10/12 07:41:44;;;;;;;;;;;9.60;99.90;;;;;;5078787;28;19932;-65
2022/10/12 07:44:11;;;;;;;;;;;9.80;99.90;;;;;;5093436;28;19912;-65
2022/10/12 07:46:36;;;;;;;;;;;9.80;99.90;;;;;;5087010;28;19912;-65
2022/10/12 07:49:02;;;;;;;;;;;9.80;99.90;;;;;;5089338;28;19908;-66
2022/10/12 07:51:28;;;;;;;;;;;9.90;99.90;;;;;;5083238;28;19927;-65
2022/10/12 07:53:53;;;;;;;;;;;10.00;99.90;;;;;;5076597;28;19912;-65
2022/10/12 07:56:19;;;;;;;;;;;10.00;99.90;;;;;;5080173;28;19995;-65
2022/10/12 07:58:49;;;;;;;;;;;9.90;99.90;;;;;;5079502;28;19999;-65
2022/10/12 08:01:14;;;;;;;;;;;10.10;99.90;;;;;;5094947;28;19971;-65
2022/10/12 08:03:40;;;;;;;;;;;10.20;99.90;;;;;;5090299;28;19943;-65
2022/10/12 08:06:16;;;;;;;;;;;10.30;99.90;;;;;;5101302;28;20354;-64
2022/10/12 08:08:42;;;;;;;;;;;10.40;99.90;;;;;;5094945;28;19941;-64
2022/10/12 08:11:08;;;;;;;;;;;10.50;99.90;;;;;;5097121;28;19936;-64
2022/10/12 08:13:34;;;;;;;;;;;10.70;99.90;;;;;;5085845;28;20305;-65
2022/10/12 08:16:00;;;;;;;;;;;10.90;99.90;;;;;;5091616;28;19927;-67
2022/10/12 08:18:26;;;;;;;;;;;11.00;99.90;;;;;;5081154;28;19916;-64
2022/10/12 08:20:51;;;;;;;;;;;11.30;99.90;;;;;;5087206;28;20024;-64
2022/10/12 08:23:17;;;;;;;;;;;11.60;99.90;;;;;;5085742;28;19919;-65
2022/10/12 08:25:50;;;;;;;;;;;11.90;99.90;;;;;;5089512;28;20274;-65
2022/10/12 08:28:15;;;;;;;;;;;12.30;99.90;;;;;;5095590;28;19912;-65
2022/10/12 08:30:41;;;;;;;;;;;12.30;99.90;;;;;;5086143;28;19923;-65
2022/10/12 08:33:06;;;;;;;;;;;12.70;99.90;;;;;;5096555;28;19988;-65
2022/10/12 08:35:32;;;;;;;;;;;13.10;99.90;;;;;;5084124;28;20264;-65
2022/10/12 08:37:58;;;;;;;;;;;13.30;99.90;;;;;;5081852;28;19965;-65
2022/10/12 08:40:29;;;;;;;;;;;13.50;99.90;;;;;;5091100;28;19967;-65
2022/10/12 08:42:58;;;;;;;;;;;13.70;99.90;;;;;;5083822;28;20041;-64
2022/10/12 08:45:26;;;;;;;;;;;13.80;99.90;;;;;;5082180;28;20425;-67
2022/10/12 08:47:54;;;;;;;;;;;14.00;99.90;;;;;;5081143;28;19973;-65
2022/10/12 08:50:28;;;;;;;;;;;14.20;99.90;;;;;;5095425;28;19966;-65
2022/10/12 08:52:56;;;;;;;;;;;14.40;99.90;;;;;;5093085;28;20371;-65
2022/10/12 08:55:34;;;;;;;;;;;14.60;99.90;;;;;;5091257;28;19912;-64
2022/10/12 08:58:00;;;;;;;;;;;14.80;99.90;;;;;;5094026;28;20627;-65
2022/10/12 09:00:27;;;;;;;;;;;14.80;99.90;;;;;;5084832;28;19913;-65
2022/10/12 09:02:59;;;;;;;;;;;14.80;99.90;;;;;;5089078;28;20409;-64
2022/10/12 09:05:31;;;;;;;;;;;14.90;99.90;;;;;;5088836;28;19912;-65
2022/10/12 09:08:06;;;;;;;;;;;14.80;99.90;;;;;;5086401;28;19912;-64
2022/10/12 09:10:40;;;;;;;;;;;14.80;99.90;;;;;;5094276;28;19986;-66
2022/10/12 09:13:24;;;;;;;;;;;14.90;99.90;;;;;;5090811;28;20285;-65
2022/10/12 09:15:50;;;;;;;;;;;14.90;99.90;;;;;;5085461;28;19918;-65
2022/10/12 09:18:27;;;;;;;;;;;15.00;99.90;;;;;;5088514;28;20330;-64
2022/10/12 09:20:54;;;;;;;;;;;14.90;99.90;;;;;;5093569;28;19938;-65
2022/10/12 09:23:24;;;;;;;;;;;14.70;99.90;;;;;;5095238;28;19920;-65
2022/10/12 09:25:50;;;;;;;;;;;14.60;99.90;;;;;;5088747;28;20373;-64
2022/10/12 09:28:21;;;;;;;;;;;14.60;99.90;;;;;;5081922;28;19919;-65
2022/10/12 09:31:10;;;;;;;;;;;14.60;99.90;;;;;;5092603;28;19920;-65
2022/10/12 09:33:40;;;;;;;;;;;14.60;99.90;;;;;;5095965;28;20316;-68
2022/10/12 09:36:08;;;;;;;;;;;14.80;99.90;;;;;;5100349;28;20278;-65
2022/10/12 09:38:35;;;;;;;;;;;14.90;99.90;;;;;;5095688;28;20071;-65
2022/10/12 09:41:00;;;;;;;;;;;14.90;99.90;;;;;;5082683;28;19943;-65
2022/10/12 09:43:26;;;;;;;;;;;14.80;99.90;;;;;;5093320;28;20350;-65
2022/10/12 09:45:52;;;;;;;;;;;14.80;99.90;;;;;;5090839;28;19935;-65
2022/10/12 09:48:19;;;;;;;;;;;14.80;99.90;;;;;;5090658;28;19920;-65
2022/10/12 09:50:46;;;;;;;;;;;14.90;99.90;;;;;;5088542;28;20176;-64
2022/10/12 09:53:32;;;;;;;;;;;14.90;99.90;;;;;;5092380;28;19912;-64
2022/10/12 09:56:01;;;;;;;;;;;15.00;99.90;;;;;;5092037;28;19923;-64
2022/10/12 09:58:27;;;;;;;;;;;15.10;99.90;;;;;;5096620;28;20388;-66
2022/10/12 10:01:15;;;;;;;;;;;15.00;99.90;;;;;;5091891;28;20630;-65
2022/10/12 10:03:41;;;;;;;;;;;15.00;99.90;;;;;;5080909;28;19920;-64
2022/10/12 10:06:06;;;;;;;;;;;15.00;99.90;;;;;;5088578;28;20223;-65
2022/10/12 10:08:39;;;;;;;;;;;15.20;99.90;;;;;;5094503;28;19916;-64
2022/10/12 10:11:12;;;;;;;;;;;15.30;99.90;;;;;;5089538;28;19925;-64
2022/10/12 10:13:37;;;;;;;;;;;15.30;99.90;;;;;;5089958;28;19936;-63
2022/10/12 10:16:09;;;;;;;;;;;15.30;99.90;;;;;;5083264;28;19916;-63
2022/10/12 10:18:41;;;;;;;;;;;15.30;99.90;;;;;;5086357;28;19951;-64
2022/10/12 10:21:09;;;;;;;;;;;15.30;99.90;;;;;;5106902;28;19916;-65
2022/10/12 10:23:40;;;;;;;;;;;15.50;99.90;;;;;;5092298;28;19912;-64
2022/10/12 10:26:08;;;;;;;;;;;15.80;99.90;;;;;;5081815;28;20389;-64
2022/10/12 10:28:37;;;;;;;;;;;16.20;99.90;;;;;;5082502;28;19917;-63
2022/10/12 10:31:20;;;;;;;;;;;16.40;99.90;;;;;;5083121;28;19916;-65
2022/10/12 10:34:01;;;;;;;;;;;16.60;99.90;;;;;;5076862;28;19923;-65
2022/10/12 10:36:26;;;;;;;;;;;16.70;99.90;;;;;;5077915;28;19921;-64
2022/10/12 10:38:58;;;;;;;;;;;16.80;99.90;;;;;;5084754;28;19935;-64
2022/10/12 10:41:33;;;;;;;;;;;16.60;99.90;;;;;;5087073;28;19912;-64
2022/10/12 10:43:59;;;;;;;;;;;16.40;99.90;;;;;;5091015;28;19923;-65
2022/10/12 10:46:26;;;;;;;;;;;16.30;99.90;;;;;;5093267;28;20291;-64
2022/10/12 10:48:57;;;;;;;;;;;16.30;99.90;;;;;;5091170;28;19912;-64
2022/10/12 10:51:41;;;;;;;;;;;16.20;99.90;;;;;;5090477;28;20290;-64
2022/10/12 10:54:39;;;;;;;;;;;16.20;99.90;;;;;;5088109;28;19912;-65
2022/10/12 10:57:05;;;;;;;;;;;16.30;99.90;;;;;;5087701;28;20270;-65
2022/10/12 10:59:38;;;;;;;;;;;16.50;99.90;;;;;;5079394;28;19926;-64
2022/10/12 11:02:10;;;;;;;;;;;16.50;99.90;;;;;;5090312;28;20617;-65
2022/10/12 11:04:40;;;;;;;;;;;16.80;99.90;;;;;;5087784;28;19912;-65
2022/10/12 11:07:18;;;;;;;;;;;16.80;99.90;;;;;;5094226;28;19916;-66
2022/10/12 11:09:45;;;;;;;;;;;16.90;99.90;;;;;;5087447;28;19912;-65
2022/10/12 11:12:17;;;;;;;;;;;17.20;99.90;;;;;;5088365;28;19920;-67
2022/10/12 11:14:43;;;;;;;;;;;17.30;99.90;;;;;;5099302;28;19912;-65
2022/10/12 11:17:29;;;;;;;;;;;17.40;99.90;;;;;;5082177;28;20006;-65
2022/10/12 11:19:58;;;;;;;;;;;17.40;99.90;;;;;;5088702;28;19913;-66
2022/10/12 11:22:46;;;;;;;;;;;17.50;99.90;;;;;;5086698;28;20034;-65
2022/10/12 11:25:28;;;;;;;;;;;17.50;96.70;;;;;;5093583;28;19911;-66
2022/10/12 11:27:54;;;;;;;;;;;17.60;93.00;;;;;;5082197;28;19913;-65
2022/10/12 11:30:21;;;;;;;;;;;17.50;91.10;;;;;;5086386;28;19984;-66
2022/10/12 11:33:04;;;;;;;;;;;17.40;91.20;;;;;;5082706;28;19913;-65
2022/10/12 11:35:34;;;;;;;;;;;17.30;91.20;;;;;;5087967;28;19918;-64
2022/10/12 11:38:01;;;;;;;;;;;17.30;92.20;;;;;;5082798;28;19950;-66
2022/10/12 11:40:32;;;;;;;;;;;17.50;91.10;;;;;;5097221;28;19912;-65
2022/10/12 11:43:02;;;;;;;;;;;17.30;91.60;;;;;;5093805;28;19943;-65
2022/10/12 11:45:30;;;;;;;;;;;17.00;92.10;;;;;;5096207;28;20358;-64
2022/10/12 11:47:59;;;;;;;;;;;17.00;93.20;;;;;;5082232;28;20362;-66
2022/10/12 11:50:31;;;;;;;;;;;17.20;92.80;;;;;;5086484;28;19946;-65
2022/10/12 11:52:58;;;;;;;;;;;17.20;92.70;;;;;;5082897;28;19913;-64
2022/10/12 11:55:32;;;;;;;;;;;17.50;92.40;;;;;;5079730;28;19912;-66
2022/10/12 11:58:01;;;;;;;;;;;17.70;90.90;;;;;;5089410;28;19965;-65
2022/10/12 12:00:31;;;;;;;;;;;17.70;90.50;;;;;;5086482;28;20203;-66
2022/10/12 12:03:19;;;;;;;;;;;17.70;90.50;;;;;;5086994;28;19917;-65
2022/10/12 12:05:45;;;;;;;;;;;17.50;90.90;;;;;;5086494;28;20027;-65
2022/10/12 12:08:21;;;;;;;;;;;17.40;90.90;;;;;;5090821;28;20354;-65
2022/10/12 12:10:50;;;;;;;;;;;17.40;91.10;;;;;;5082435;28;19920;-65
2022/10/12 12:13:21;;;;;;;;;;;17.40;90.70;;;;;;5094053;28;20304;-65
2022/10/12 12:15:48;;;;;;;;;;;17.40;90.50;;;;;;5082041;28;19912;-65
2022/10/12 12:18:18;;;;;;;;;;;17.50;90.50;;;;;;5086988;28;19912;-65
2022/10/12 12:20:43;;;;;;;;;;;17.60;90.70;;;;;;5094837;28;19912;-65
2022/10/12 12:23:21;;;;;;;;;;;17.40;90.60;;;;;;5099310;28;19919;-65
2022/10/12 12:25:54;;;;;;;;;;;17.40;90.80;;;;;;5100421;28;19912;-65
2022/10/12 12:28:21;;;;;;;;;;;17.40;91.50;;;;;;5091161;28;20276;-65
2022/10/12 12:30:57;;;;;;;;;;;17.60;91.30;;;;;;5099721;28;19920;-64
2022/10/12 12:33:30;;;;;;;;;;;17.60;90.70;;;;;;5097671;28;19934;-65
2022/10/12 12:36:00;;;;;;;;;;;17.70;91.20;;;;;;5099260;28;19935;-65
2022/10/12 12:38:28;;;;;;;;;;;17.70;91.00;;;;;;5093692;28;19923;-65
2022/10/12 12:40:58;;;;;;;;;;;17.70;90.80;;;;;;5099473;28;19919;-65
2022/10/12 12:43:29;;;;;;;;;;;17.60;90.30;;;;;;5084765;28;19924;-65
2022/10/12 12:45:59;;;;;;;;;;;17.50;90.30;;;;;;5089805;28;19926;-65
2022/10/12 12:48:45;;;;;;;;;;;17.40;91.40;;;;;;5084542;28;19944;-65
2022/10/12 12:51:16;;;;;;;;;;;17.40;92.00;;;;;;5089458;28;19924;-65
2022/10/12 12:53:49;;;;;;;;;;;17.30;92.30;;;;;;5093094;28;19920;-64
2022/10/12 12:56:20;;;;;;;;;;;17.30;92.80;;;;;;5097031;28;20362;-64
2022/10/12 12:58:49;;;;;;;;;;;17.30;92.80;;;;;;5092961;28;19995;-64
2022/10/12 13:01:14;;;;;;;;;;;17.40;92.80;;;;;;5097296;28;19916;-65
2022/10/12 13:03:58;;;;;;;;;;;17.50;92.60;;;;;;5100410;28;19922;-65
2022/10/12 13:06:30;;;;;;;;;;;17.70;92.40;;;;;;5091423;28;19919;-64
2022/10/12 13:09:01;;;;;;;;;;;17.60;91.50;;;;;;5095200;28;19923;-65
2022/10/12 13:11:29;;;;;;;;;;;17.60;91.60;;;;;;5091606;28;19998;-65
2022/10/12 13:14:27;;;;;;;;;;;17.50;92.00;;;;;;5100118;28;20330;-64
2022/10/12 13:16:53;;;;;;;;;;;17.50;92.30;;;;;;5089426;28;19912;-65
2022/10/12 13:19:18;;;;;;;;;;;17.60;92.40;;;;;;5089550;28;19922;-65
2022/10/12 13:21:48;;;;;;;;;;;17.30;93.10;;;;;;5098069;28;19912;-64
2022/10/12 13:24:17;;;;;;;;;;;17.30;94.00;;;;;;5095987;28;19983;-64
2022/10/12 13:26:44;;;;;;;;;;;17.20;93.80;;;;;;5093105;28;19912;-64
2022/10/12 13:29:15;;;;;;;;;;;17.30;93.80;;;;;;5094505;28;19946;-63
2022/10/12 13:31:43;;;;;;;;;;;17.30;92.90;;;;;;5097109;28;19951;-64
2022/10/12 13:34:18;;;;;;;;;;;17.30;92.50;;;;;;5084715;28;19974;-65
2022/10/12 13:36:48;;;;;;;;;;;17.30;92.30;;;;;;5092795;28;19977;-64
2022/10/12 13:39:15;;;;;;;;;;;17.40;92.20;;;;;;5093365;28;19912;-65
2022/10/12 13:41:41;;;;;;;;;;;17.50;92.20;;;;;;5088176;28;19924;-64
2022/10/12 13:44:06;;;;;;;;;;;17.60;92.70;;;;;;5095455;28;19912;-65
2022/10/12 13:46:45;;;;;;;;;;;17.80;91.50;;;;;;5099015;28;19916;-64
2022/10/12 13:49:13;;;;;;;;;;;18.10;90.70;;;;;;5100221;28;19912;-65
2022/10/12 13:51:39;;;;;;;;;;;18.30;90.70;;;;;;5095867;28;19920;-65
2022/10/12 13:54:23;;;;;;;;;;;18.30;89.90;;;;;;5093465;28;19934;-66
2022/10/12 13:56:54;;;;;;;;;;;18.40;87.70;;;;;;5105913;28;19912;-64
2022/10/12 13:59:21;;;;;;;;;;;18.50;86.70;;;;;;5097424;28;19916;-66
2022/10/12 14:01:54;;;;;;;;;;;18.40;86.60;;;;;;5078370;28;20003;-66
2022/10/12 14:04:21;;;;;;;;;;;18.30;86.20;;;;;;5087726;28;19918;-65
2022/10/12 14:06:50;;;;;;;;;;;18.10;88.20;;;;;;5096828;28;19908;-64
2022/10/12 14:09:18;;;;;;;;;;;18.10;88.30;;;;;;5091262;28;19913;-64
2022/10/12 14:11:45;;;;;;;;;;;18.30;87.30;;;;;;5097554;28;19924;-65
2022/10/12 14:14:31;;;;;;;;;;;18.40;84.80;;;;;;5092371;28;19935;-66
2022/10/12 14:16:56;;;;;;;;;;;18.50;83.60;;;;;;5096607;28;19979;-66
2022/10/12 14:19:41;;;;;;;;;;;18.40;82.70;;;;;;5096111;28;19919;-64
2022/10/12 14:22:07;;;;;;;;;;;18.50;82.10;;;;;;5102236;28;19912;-64
2022/10/12 14:24:36;;;;;;;;;;;18.60;81.40;;;;;;5102790;28;19961;-65
2022/10/12 14:27:03;;;;;;;;;;;18.50;80.70;;;;;;5086732;28;20227;-64
2022/10/12 14:29:38;;;;;;;;;;;18.20;81.00;;;;;;5097904;28;19916;-65
2022/10/12 14:32:09;;;;;;;;;;;18.00;81.40;;;;;;5099716;28;20006;-65
2022/10/12 14:34:46;;;;;;;;;;;18.00;81.80;;;;;;5093410;28;19975;-64